University Buffalo, New York
Current Conditions -  °F | °C
As of 3:54 PM on Tuesday 21 Oct 2014 (Local Time) from KBUF Reporting Station
Drizzle Drizzle  
Wind Chill: 10°   Ceiling: 500
Heat Index: 10°   Visibility: 10mi
Dew Point:   Wind: 8mph
Humidity: 89%   Direction: 10°N
Pressure: 29.9"   Gusts: NA
Location:  42.9393°N, 78.8401°W
Report Text: KBUF 211954Z 01007KT 10SM -DZ OVC005 10/08 A2990 RMK AO2 RAE47DZB47 SLP129 CIG 003V006 PCPN VRY LGT P0000 T01000083
Loading
Personal Weather Stations






























Interactive Weather Map
Tropical Storm Tracking
New forecast layout! Learn more

10-Day Weather Forecast

Advertisements
Track Severe Weather on mobile